sensor_id;sensor_type;location;lat;lon;timestamp;temperature;humidity
11132;DHT22;5620;53.570;9.718;2022-10-26T00:01:21;10.70;99.90
11132;DHT22;5620;53.570;9.718;2022-10-26T00:03:47;10.60;1.00
11132;DHT22;5620;53.570;9.718;2022-10-26T00:06:19;10.60;99.90
11132;DHT22;5620;53.570;9.718;2022-10-26T00:08:47;10.60;1.00
11132;DHT22;5620;53.570;9.718;2022-10-26T00:11:13;10.60;1.00
11132;DHT22;5620;53.570;9.718;2022-10-26T00:13:40;10.70;1.00
11132;DHT22;5620;53.570;9.718;2022-10-26T00:16:25;10.60;1.00
11132;DHT22;5620;53.570;9.718;2022-10-26T00:18:51;10.60;1.00
11132;DHT22;5620;53.570;9.718;2022-10-26T00:21:18;10.60;1.00
11132;DHT22;5620;53.570;9.718;2022-10-26T00:23:45;10.60;75.70
11132;DHT22;5620;53.570;9.718;2022-10-26T00:26:10;10.70;50.80
11132;DHT22;5620;53.570;9.718;2022-10-26T00:28:38;10.70;83.80
11132;DHT22;5620;53.570;9.718;2022-10-26T00:31:15;10.70;28.00
11132;DHT22;5620;53.570;9.718;2022-10-26T00:33:42;10.70;1.00
11132;DHT22;5620;53.570;9.718;2022-10-26T00:36:10;10.80;35.50
11132;DHT22;5620;53.570;9.718;2022-10-26T00:38:36;10.70;99.90
11132;DHT22;5620;53.570;9.718;2022-10-26T00:41:05;10.80;99.90
11132;DHT22;5620;53.570;9.718;2022-10-26T00:43:49;10.80;99.90
11132;DHT22;5620;53.570;9.718;2022-10-26T00:46:19;10.70;99.90
11132;DHT22;5620;53.570;9.718;2022-10-26T00:48:55;10.70;99.90
11132;DHT22;5620;53.570;9.718;2022-10-26T00:51:29;10.70;99.90
11132;DHT22;5620;53.570;9.718;2022-10-26T00:53:58;10.70;99.90
11132;DHT22;5620;53.570;9.718;2022-10-26T00:56:25;10.70;99.90
11132;DHT22;5620;53.570;9.718;2022-10-26T00:59:01;10.70;99.90
11132;DHT22;5620;53.570;9.718;2022-10-26T01:01:28;10.70;99.90
11132;DHT22;5620;53.570;9.718;2022-10-26T01:03:56;10.70;99.90
11132;DHT22;5620;53.570;9.718;2022-10-26T01:06:24;10.70;99.90
11132;DHT22;5620;53.570;9.718;2022-10-26T01:08:50;10.60;1.00
11132;DHT22;5620;53.570;9.718;2022-10-26T01:11:17;10.60;1.00
11132;DHT22;5620;53.570;9.718;2022-10-26T01:13:49;10.60;1.00
11132;DHT22;5620;53.570;9.718;2022-10-26T01:16:38;10.60;1.00
11132;DHT22;5620;53.570;9.718;2022-10-26T01:22:15;10.50;1.00
11132;DHT22;5620;53.570;9.718;2022-10-26T01:27:53;10.60;1.00
11132;DHT22;5620;53.570;9.718;2022-10-26T01:30:35;10.50;1.00
11132;DHT22;5620;53.570;9.718;2022-10-26T01:36:38;10.60;1.00
11132;DHT22;5620;53.570;9.718;2022-10-26T01:39:28;10.60;1.00
11132;DHT22;5620;53.570;9.718;2022-10-26T01:42:10;10.60;1.00
11132;DHT22;5620;53.570;9.718;2022-10-26T01:44:45;10.60;1.00
11132;DHT22;5620;53.570;9.718;2022-10-26T01:47:15;10.60;1.00
11132;DHT22;5620;53.570;9.718;2022-10-26T01:49:48;10.70;1.00
11132;DHT22;5620;53.570;9.718;2022-10-26T01:52:17;10.70;1.00
11132;DHT22;5620;53.570;9.718;2022-10-26T01:54:45;10.70;1.00
11132;DHT22;5620;53.570;9.718;2022-10-26T01:57:13;10.70;1.00
11132;DHT22;5620;53.570;9.718;2022-10-26T02:00:09;10.70;1.00
11132;DHT22;5620;53.570;9.718;2022-10-26T02:03:07;10.60;1.00
11132;DHT22;5620;53.570;9.718;2022-10-26T02:14:07;10.40;1.00
11132;DHT22;5620;53.570;9.718;2022-10-26T02:16:56;10.40;42.70
11132;DHT22;5620;53.570;9.718;2022-10-26T02:22:40;10.40;99.90
11132;DHT22;5620;53.570;9.718;2022-10-26T02:25:16;10.40;92.10
11132;DHT22;5620;53.570;9.718;2022-10-26T02:27:46;10.40;82.90
11132;DHT22;5620;53.570;9.718;2022-10-26T02:30:15;10.30;92.90
11132;DHT22;5620;53.570;9.718;2022-10-26T02:32:46;10.40;96.40
11132;DHT22;5620;53.570;9.718;2022-10-26T02:35:15;10.30;99.90
11132;DHT22;5620;53.570;9.718;2022-10-26T02:37:43;10.30;99.90
11132;DHT22;5620;53.570;9.718;2022-10-26T02:40:21;10.30;99.90
11132;DHT22;5620;53.570;9.718;2022-10-26T02:42:49;10.40;99.90
11132;DHT22;5620;53.570;9.718;2022-10-26T02:45:22;10.40;99.90
11132;DHT22;5620;53.570;9.718;2022-10-26T02:47:51;10.40;99.90
11132;DHT22;5620;53.570;9.718;2022-10-26T02:50:22;10.30;99.90
11132;DHT22;5620;53.570;9.718;2022-10-26T02:53:02;10.30;99.90
11132;DHT22;5620;53.570;9.718;2022-10-26T02:55:35;10.30;99.90
11132;DHT22;5620;53.570;9.718;2022-10-26T02:58:13;10.30;99.90
11132;DHT22;5620;53.570;9.718;2022-10-26T03:00:41;10.30;99.90
11132;DHT22;5620;53.570;9.718;2022-10-26T03:03:09;10.30;99.90
11132;DHT22;5620;53.570;9.718;2022-10-26T03:05:39;10.30;99.90
11132;DHT22;5620;53.570;9.718;2022-10-26T03:08:07;10.30;99.90
11132;DHT22;5620;53.570;9.718;2022-10-26T03:10:38;10.30;99.90
11132;DHT22;5620;53.570;9.718;2022-10-26T03:13:06;10.30;99.90
11132;DHT22;5620;53.570;9.718;2022-10-26T03:15:34;10.30;99.90
11132;DHT22;5620;53.570;9.718;2022-10-26T03:18:00;10.30;99.90
11132;DHT22;5620;53.570;9.718;2022-10-26T03:20:26;10.30;99.90
11132;DHT22;5620;53.570;9.718;2022-10-26T03:22:55;10.40;99.90
11132;DHT22;5620;53.570;9.718;2022-10-26T03:25:21;10.30;99.90
11132;DHT22;5620;53.570;9.718;2022-10-26T03:27:58;10.30;99.90
11132;DHT22;5620;53.570;9.718;2022-10-26T03:30:26;10.30;99.90
11132;DHT22;5620;53.570;9.718;2022-10-26T03:32:53;10.30;99.90
11132;DHT22;5620;53.570;9.718;2022-10-26T03:35:21;10.30;99.90
11132;DHT22;5620;53.570;9.718;2022-10-26T03:37:48;10.20;99.90
11132;DHT22;5620;53.570;9.718;2022-10-26T03:40:15;10.30;99.90
11132;DHT22;5620;53.570;9.718;2022-10-26T03:42:42;10.20;99.90
11132;DHT22;5620;53.570;9.718;2022-10-26T03:45:09;10.20;99.90
11132;DHT22;5620;53.570;9.718;2022-10-26T03:47:42;10.20;99.90
11132;DHT22;5620;53.570;9.718;2022-10-26T03:50:10;10.20;99.90
11132;DHT22;5620;53.570;9.718;2022-10-26T03:52:39;10.20;99.90
11132;DHT22;5620;53.570;9.718;2022-10-26T03:55:09;10.10;99.90
11132;DHT22;5620;53.570;9.718;2022-10-26T03:57:42;10.10;99.90
11132;DHT22;5620;53.570;9.718;2022-10-26T04:00:13;10.10;99.90
11132;DHT22;5620;53.570;9.718;2022-10-26T04:02:39;10.20;99.90
11132;DHT22;5620;53.570;9.718;2022-10-26T04:05:10;10.20;99.90
11132;DHT22;5620;53.570;9.718;2022-10-26T04:07:37;10.20;99.90
11132;DHT22;5620;53.570;9.718;2022-10-26T04:10:05;10.20;99.90
11132;DHT22;5620;53.570;9.718;2022-10-26T04:12:34;10.20;99.90
11132;DHT22;5620;53.570;9.718;2022-10-26T04:15:00;10.20;99.90
11132;DHT22;5620;53.570;9.718;2022-10-26T04:17:26;10.20;99.90
11132;DHT22;5620;53.570;9.718;2022-10-26T04:19:53;10.20;99.90
11132;DHT22;5620;53.570;9.718;2022-10-26T04:22:19;10.40;99.90
11132;DHT22;5620;53.570;9.718;2022-10-26T04:24:45;10.20;99.90
11132;DHT22;5620;53.570;9.718;2022-10-26T04:27:10;10.20;99.90
11132;DHT22;5620;53.570;9.718;2022-10-26T04:29:37;10.20;99.90
11132;DHT22;5620;53.570;9.718;2022-10-26T04:32:04;10.20;99.90
11132;DHT22;5620;53.570;9.718;2022-10-26T04:34:32;10.20;99.90
11132;DHT22;5620;53.570;9.718;2022-10-26T04:36:58;10.20;99.90
11132;DHT22;5620;53.570;9.718;2022-10-26T04:39:26;10.20;99.90
11132;DHT22;5620;53.570;9.718;2022-10-26T04:41:53;10.20;99.90
11132;DHT22;5620;53.570;9.718;2022-10-26T04:44:19;10.20;99.90
11132;DHT22;5620;53.570;9.718;2022-10-26T04:46:46;10.20;99.90
11132;DHT22;5620;53.570;9.718;2022-10-26T04:49:11;10.20;99.90
11132;DHT22;5620;53.570;9.718;2022-10-26T04:51:38;10.20;1.00
11132;DHT22;5620;53.570;9.718;2022-10-26T04:54:04;10.20;1.00
11132;DHT22;5620;53.570;9.718;2022-10-26T04:56:29;10.20;1.00
11132;DHT22;5620;53.570;9.718;2022-10-26T04:58:56;10.20;1.00
11132;DHT22;5620;53.570;9.718;2022-10-26T05:01:23;10.20;1.00
11132;DHT22;5620;53.570;9.718;2022-10-26T05:03:50;10.20;1.00
11132;DHT22;5620;53.570;9.718;2022-10-26T05:06:16;10.30;1.00
11132;DHT22;5620;53.570;9.718;2022-10-26T05:08:43;10.30;1.00
11132;DHT22;5620;53.570;9.718;2022-10-26T05:11:10;10.30;1.00
11132;DHT22;5620;53.570;9.718;2022-10-26T05:13:37;10.30;1.00
11132;DHT22;5620;53.570;9.718;2022-10-26T05:16:04;10.30;1.00
11132;DHT22;5620;53.570;9.718;2022-10-26T05:18:31;10.30;1.00
11132;DHT22;5620;53.570;9.718;2022-10-26T05:20:58;10.40;1.00
11132;DHT22;5620;53.570;9.718;2022-10-26T05:23:25;10.30;99.90
11132;DHT22;5620;53.570;9.718;2022-10-26T05:25:53;10.30;1.00
11132;DHT22;5620;53.570;9.718;2022-10-26T05:28:19;10.20;1.00
11132;DHT22;5620;53.570;9.718;2022-10-26T05:30:46;10.20;1.00
11132;DHT22;5620;53.570;9.718;2022-10-26T05:33:13;10.20;1.00
11132;DHT22;5620;53.570;9.718;2022-10-26T05:35:39;10.20;1.00
11132;DHT22;5620;53.570;9.718;2022-10-26T05:38:20;10.20;1.00
11132;DHT22;5620;53.570;9.718;2022-10-26T05:40:51;10.10;1.00
11132;DHT22;5620;53.570;9.718;2022-10-26T05:43:18;10.10;1.00
11132;DHT22;5620;53.570;9.718;2022-10-26T05:45:44;10.10;1.00
11132;DHT22;5620;53.570;9.718;2022-10-26T05:48:10;10.10;1.00
11132;DHT22;5620;53.570;9.718;2022-10-26T05:50:39;10.10;1.00
11132;DHT22;5620;53.570;9.718;2022-10-26T05:53:05;10.10;1.00
11132;DHT22;5620;53.570;9.718;2022-10-26T05:55:33;10.10;1.00
11132;DHT22;5620;53.570;9.718;2022-10-26T05:58:00;10.00;1.00
11132;DHT22;5620;53.570;9.718;2022-10-26T06:00:27;10.00;1.00
11132;DHT22;5620;53.570;9.718;2022-10-26T06:06:00;10.00;1.00
11132;DHT22;5620;53.570;9.718;2022-10-26T06:08:27;10.00;1.00
11132;DHT22;5620;53.570;9.718;2022-10-26T06:10:55;10.00;1.00
11132;DHT22;5620;53.570;9.718;2022-10-26T06:13:22;10.00;1.00
11132;DHT22;5620;53.570;9.718;2022-10-26T06:24:35;10.00;1.00
11132;DHT22;5620;53.570;9.718;2022-10-26T06:29:55;10.00;1.00
11132;DHT22;5620;53.570;9.718;2022-10-26T06:32:24;10.10;1.00
11132;DHT22;5620;53.570;9.718;2022-10-26T06:34:52;10.10;1.00
11132;DHT22;5620;53.570;9.718;2022-10-26T06:37:23;10.20;1.00
11132;DHT22;5620;53.570;9.718;2022-10-26T06:39:50;10.20;1.00
11132;DHT22;5620;53.570;9.718;2022-10-26T06:42:17;10.20;1.00
11132;DHT22;5620;53.570;9.718;2022-10-26T06:44:44;10.30;1.00
11132;DHT22;5620;53.570;9.718;2022-10-26T06:47:20;10.30;1.00
11132;DHT22;5620;53.570;9.718;2022-10-26T06:52:57;10.50;1.00
11132;DHT22;5620;53.570;9.718;2022-10-26T06:55:28;10.50;1.00
11132;DHT22;5620;53.570;9.718;2022-10-26T06:57:56;10.60;1.00
11132;DHT22;5620;53.570;9.718;2022-10-26T07:00:25;10.60;1.00
11132;DHT22;5620;53.570;9.718;2022-10-26T07:02:52;10.70;99.90
11132;DHT22;5620;53.570;9.718;2022-10-26T07:05:19;10.80;99.90
11132;DHT22;5620;53.570;9.718;2022-10-26T07:07:49;10.80;99.90
11132;DHT22;5620;53.570;9.718;2022-10-26T07:10:16;10.80;99.90
11132;DHT22;5620;53.570;9.718;2022-10-26T07:12:44;10.90;99.90
11132;DHT22;5620;53.570;9.718;2022-10-26T07:15:11;11.00;99.90
11132;DHT22;5620;53.570;9.718;2022-10-26T07:17:47;11.10;99.90
11132;DHT22;5620;53.570;9.718;2022-10-26T07:20:19;11.20;99.90
11132;DHT22;5620;53.570;9.718;2022-10-26T07:22:50;11.20;99.90
11132;DHT22;5620;53.570;9.718;2022-10-26T07:25:17;11.30;99.90
11132;DHT22;5620;53.570;9.718;2022-10-26T07:27:47;11.30;99.90
11132;DHT22;5620;53.570;9.718;2022-10-26T07:30:13;11.40;99.90
11132;DHT22;5620;53.570;9.718;2022-10-26T07:32:38;11.50;99.90
11132;DHT22;5620;53.570;9.718;2022-10-26T07:35:06;11.60;99.90
11132;DHT22;5620;53.570;9.718;2022-10-26T07:37:36;11.60;99.90
11132;DHT22;5620;53.570;9.718;2022-10-26T07:40:03;11.70;99.90
11132;DHT22;5620;53.570;9.718;2022-10-26T07:42:28;11.80;99.20
11132;DHT22;5620;53.570;9.718;2022-10-26T07:45:00;11.80;44.90
11132;DHT22;5620;53.570;9.718;2022-10-26T07:47:26;11.90;4.80
11132;DHT22;5620;53.570;9.718;2022-10-26T07:49:53;11.90;1.00
11132;DHT22;5620;53.570;9.718;2022-10-26T07:52:20;12.00;1.00
11132;DHT22;5620;53.570;9.718;2022-10-26T07:54:46;12.00;1.00
11132;DHT22;5620;53.570;9.718;2022-10-26T07:57:14;12.10;1.00
11132;DHT22;5620;53.570;9.718;2022-10-26T07:59:44;12.10;1.00
11132;DHT22;5620;53.570;9.718;2022-10-26T08:02:09;12.20;1.00
11132;DHT22;5620;53.570;9.718;2022-10-26T08:04:35;12.30;1.00
11132;DHT22;5620;53.570;9.718;2022-10-26T08:07:01;12.30;1.00
11132;DHT22;5620;53.570;9.718;2022-10-26T08:09:28;12.40;1.00
11132;DHT22;5620;53.570;9.718;2022-10-26T08:11:54;12.40;99.90
11132;DHT22;5620;53.570;9.718;2022-10-26T08:14:19;12.40;99.90
11132;DHT22;5620;53.570;9.718;2022-10-26T08:16:46;12.50;99.90
11132;DHT22;5620;53.570;9.718;2022-10-26T08:19:13;12.50;99.90
11132;DHT22;5620;53.570;9.718;2022-10-26T08:21:40;12.50;99.90
11132;DHT22;5620;53.570;9.718;2022-10-26T08:24:08;12.60;99.90
11132;DHT22;5620;53.570;9.718;2022-10-26T08:26:34;12.70;99.90
11132;DHT22;5620;53.570;9.718;2022-10-26T08:28:59;12.70;84.00
11132;DHT22;5620;53.570;9.718;2022-10-26T08:31:25;12.80;1.00
11132;DHT22;5620;53.570;9.718;2022-10-26T08:33:50;12.90;1.00
11132;DHT22;5620;53.570;9.718;2022-10-26T08:36:23;12.90;1.00
11132;DHT22;5620;53.570;9.718;2022-10-26T08:38:51;12.90;1.00
11132;DHT22;5620;53.570;9.718;2022-10-26T08:41:29;13.00;1.00
11132;DHT22;5620;53.570;9.718;2022-10-26T08:44:09;13.00;99.90
11132;DHT22;5620;53.570;9.718;2022-10-26T08:47:01;13.10;99.90
11132;DHT22;5620;53.570;9.718;2022-10-26T08:49:29;13.10;99.90
11132;DHT22;5620;53.570;9.718;2022-10-26T08:52:00;13.20;99.90
11132;DHT22;5620;53.570;9.718;2022-10-26T08:54:36;13.30;99.90
11132;DHT22;5620;53.570;9.718;2022-10-26T08:57:16;13.30;93.20
11132;DHT22;5620;53.570;9.718;2022-10-26T08:59:59;13.40;1.00
11132;DHT22;5620;53.570;9.718;2022-10-26T09:02:26;13.40;1.00
11132;DHT22;5620;53.570;9.718;2022-10-26T09:04:53;13.50;1.00
11132;DHT22;5620;53.570;9.718;2022-10-26T09:10:26;13.60;1.00
11132;DHT22;5620;53.570;9.718;2022-10-26T09:13:25;13.60;1.00
11132;DHT22;5620;53.570;9.718;2022-10-26T09:16:16;13.70;1.00
11132;DHT22;5620;53.570;9.718;2022-10-26T09:19:25;13.80;99.90
11132;DHT22;5620;53.570;9.718;2022-10-26T09:22:52;13.90;99.90
11132;DHT22;5620;53.570;9.718;2022-10-26T09:24:54;14.00;99.90
11132;DHT22;5620;53.570;9.718;2022-10-26T09:27:32;14.20;15.20
11132;DHT22;5620;53.570;9.718;2022-10-26T09:30:05;14.40;1.00
11132;DHT22;5620;53.570;9.718;2022-10-26T09:32:40;14.60;99.90
11132;DHT22;5620;53.570;9.718;2022-10-26T09:35:20;14.70;1.00
11132;DHT22;5620;53.570;9.718;2022-10-26T09:37:53;14.90;1.00
11132;DHT22;5620;53.570;9.718;2022-10-26T09:40:29;15.10;1.00
11132;DHT22;5620;53.570;9.718;2022-10-26T09:42:57;15.30;99.90
11132;DHT22;5620;53.570;9.718;2022-10-26T09:45:29;15.50;99.90
11132;DHT22;5620;53.570;9.718;2022-10-26T09:48:08;15.70;1.00
11132;DHT22;5620;53.570;9.718;2022-10-26T09:50:38;15.90;1.00
11132;DHT22;5620;53.570;9.718;2022-10-26T09:53:04;16.10;99.90
11132;DHT22;5620;53.570;9.718;2022-10-26T09:55:32;16.30;99.90
11132;DHT22;5620;53.570;9.718;2022-10-26T09:58:05;16.50;99.90
11132;DHT22;5620;53.570;9.718;2022-10-26T10:00:33;16.70;90.40
11132;DHT22;5620;53.570;9.718;2022-10-26T10:02:59;16.90;1.00
11132;DHT22;5620;53.570;9.718;2022-10-26T10:05:33;17.00;99.90
11132;DHT22;5620;53.570;9.718;2022-10-26T10:08:22;17.20;99.90
11132;DHT22;5620;53.570;9.718;2022-10-26T10:10:56;17.40;99.90
11132;DHT22;5620;53.570;9.718;2022-10-26T10:13:28;17.60;99.90
11132;DHT22;5620;53.570;9.718;2022-10-26T10:16:01;17.80;29.60
11132;DHT22;5620;53.570;9.718;2022-10-26T10:18:27;17.90;1.00
11132;DHT22;5620;53.570;9.718;2022-10-26T10:20:55;18.10;1.00
11132;DHT22;5620;53.570;9.718;2022-10-26T10:23:31;18.20;99.90
11132;DHT22;5620;53.570;9.718;2022-10-26T10:25:59;18.30;1.00
11132;DHT22;5620;53.570;9.718;2022-10-26T10:28:29;18.40;1.00
11132;DHT22;5620;53.570;9.718;2022-10-26T10:31:03;18.60;1.00
11132;DHT22;5620;53.570;9.718;2022-10-26T10:33:48;19.10;1.00
11132;DHT22;5620;53.570;9.718;2022-10-26T10:36:21;19.90;99.90
11132;DHT22;5620;53.570;9.718;2022-10-26T10:38:50;20.80;1.00
11132;DHT22;5620;53.570;9.718;2022-10-26T10:41:28;21.80;61.40
11132;DHT22;5620;53.570;9.718;2022-10-26T10:44:40;23.20;99.90
11132;DHT22;5620;53.570;9.718;2022-10-26T10:46:40;24.60;99.90
11132;DHT22;5620;53.570;9.718;2022-10-26T10:49:19;26.10;1.00
11132;DHT22;5620;53.570;9.718;2022-10-26T10:51:49;27.40;99.90
11132;DHT22;5620;53.570;9.718;2022-10-26T10:54:32;28.50;99.90
11132;DHT22;5620;53.570;9.718;2022-10-26T10:57:28;29.60;1.00
11132;DHT22;5620;53.570;9.718;2022-10-26T11:00:15;30.50;1.00
11132;DHT22;5620;53.570;9.718;2022-10-26T11:05:59;31.90;1.00
11132;DHT22;5620;53.570;9.718;2022-10-26T11:11:05;32.90;1.00
11132;DHT22;5620;53.570;9.718;2022-10-26T11:13:40;33.40;1.00
11132;DHT22;5620;53.570;9.718;2022-10-26T11:16:19;33.10;1.00
11132;DHT22;5620;53.570;9.718;2022-10-26T11:19:07;32.20;1.00
11132;DHT22;5620;53.570;9.718;2022-10-26T11:21:39;31.50;1.00
11132;DHT22;5620;53.570;9.718;2022-10-26T11:27:13;31.80;1.00
11132;DHT22;5620;53.570;9.718;2022-10-26T11:30:14;32.70;1.00
11132;DHT22;5620;53.570;9.718;2022-10-26T11:32:55;33.50;1.00
11132;DHT22;5620;53.570;9.718;2022-10-26T11:41:23;33.40;1.00
11132;DHT22;5620;53.570;9.718;2022-10-26T11:44:41;34.20;1.00
11132;DHT22;5620;53.570;9.718;2022-10-26T11:46:46;35.00;1.00
11132;DHT22;5620;53.570;9.718;2022-10-26T11:52:32;35.80;1.00
11132;DHT22;5620;53.570;9.718;2022-10-26T11:55:07;35.80;1.00
11132;DHT22;5620;53.570;9.718;2022-10-26T11:57:36;35.50;1.00
11132;DHT22;5620;53.570;9.718;2022-10-26T12:00:18;35.50;1.00
11132;DHT22;5620;53.570;9.718;2022-10-26T12:03:00;35.30;1.00
11132;DHT22;5620;53.570;9.718;2022-10-26T12:05:41;33.60;1.00
11132;DHT22;5620;53.570;9.718;2022-10-26T12:08:15;31.20;1.00
11132;DHT22;5620;53.570;9.718;2022-10-26T12:10:42;29.20;1.00
11132;DHT22;5620;53.570;9.718;2022-10-26T12:16:42;26.90;1.00
11132;DHT22;5620;53.570;9.718;2022-10-26T12:19:19;26.00;1.00
11132;DHT22;5620;53.570;9.718;2022-10-26T12:21:48;25.50;1.00
11132;DHT22;5620;53.570;9.718;2022-10-26T12:24:27;25.20;1.00
11132;DHT22;5620;53.570;9.718;2022-10-26T12:26:58;25.20;1.00
11132;DHT22;5620;53.570;9.718;2022-10-26T12:29:29;25.30;1.00
11132;DHT22;5620;53.570;9.718;2022-10-26T12:31:57;25.40;1.00
11132;DHT22;5620;53.570;9.718;2022-10-26T12:39:54;28.10;1.00
11132;DHT22;5620;53.570;9.718;2022-10-26T12:42:28;29.30;1.00
11132;DHT22;5620;53.570;9.718;2022-10-26T12:50:18;33.10;1.00
11132;DHT22;5620;53.570;9.718;2022-10-26T12:53:06;33.70;1.00
11132;DHT22;5620;53.570;9.718;2022-10-26T12:56:03;33.90;1.00
11132;DHT22;5620;53.570;9.718;2022-10-26T12:59:00;34.30;1.00
11132;DHT22;5620;53.570;9.718;2022-10-26T13:07:46;35.20;1.00
11132;DHT22;5620;53.570;9.718;2022-10-26T13:10:18;35.60;1.00
11132;DHT22;5620;53.570;9.718;2022-10-26T13:13:05;36.10;1.00
11132;DHT22;5620;53.570;9.718;2022-10-26T13:15:40;36.60;1.00
11132;DHT22;5620;53.570;9.718;2022-10-26T13:18:19;37.40;1.00
11132;DHT22;5620;53.570;9.718;2022-10-26T13:23:33;38.00;1.00
11132;DHT22;5620;53.570;9.718;2022-10-26T13:26:18;37.50;1.00
11132;DHT22;5620;53.570;9.718;2022-10-26T13:28:47;36.20;1.00
11132;DHT22;5620;53.570;9.718;2022-10-26T13:42:17;33.20;1.00
11132;DHT22;5620;53.570;9.718;2022-10-26T13:48:04;34.80;1.00
11132;DHT22;5620;53.570;9.718;2022-10-26T13:50:52;33.80;1.00
11132;DHT22;5620;53.570;9.718;2022-10-26T13:53:23;32.40;1.00
11132;DHT22;5620;53.570;9.718;2022-10-26T13:55:53;30.90;1.00
11132;DHT22;5620;53.570;9.718;2022-10-26T13:59:02;29.40;1.00
11132;DHT22;5620;53.570;9.718;2022-10-26T14:01:30;28.10;1.00
11132;DHT22;5620;53.570;9.718;2022-10-26T14:03:56;27.10;1.00
11132;DHT22;5620;53.570;9.718;2022-10-26T14:06:36;26.30;1.00
11132;DHT22;5620;53.570;9.718;2022-10-26T14:09:12;25.90;1.00
11132;DHT22;5620;53.570;9.718;2022-10-26T14:11:54;25.60;1.00
11132;DHT22;5620;53.570;9.718;2022-10-26T14:14:34;25.40;1.00
11132;DHT22;5620;53.570;9.718;2022-10-26T14:17:03;25.10;1.00
11132;DHT22;5620;53.570;9.718;2022-10-26T14:19:38;24.80;1.00
11132;DHT22;5620;53.570;9.718;2022-10-26T14:22:14;24.60;1.00
11132;DHT22;5620;53.570;9.718;2022-10-26T14:24:52;24.50;1.00
11132;DHT22;5620;53.570;9.718;2022-10-26T14:27:22;24.30;1.00
11132;DHT22;5620;53.570;9.718;2022-10-26T14:29:48;24.10;1.00
11132;DHT22;5620;53.570;9.718;2022-10-26T14:32:33;24.00;1.00
11132;DHT22;5620;53.570;9.718;2022-10-26T14:35:00;23.80;1.00
11132;DHT22;5620;53.570;9.718;2022-10-26T14:37:36;23.80;1.00
11132;DHT22;5620;53.570;9.718;2022-10-26T14:40:04;23.70;1.00
11132;DHT22;5620;53.570;9.718;2022-10-26T14:42:39;23.70;1.00
11132;DHT22;5620;53.570;9.718;2022-10-26T14:47:56;23.10;1.00
11132;DHT22;5620;53.570;9.718;2022-10-26T14:50:25;23.20;1.00
11132;DHT22;5620;53.570;9.718;2022-10-26T14:52:59;23.20;1.00
11132;DHT22;5620;53.570;9.718;2022-10-26T14:55:26;22.60;1.00
11132;DHT22;5620;53.570;9.718;2022-10-26T14:58:13;21.90;1.00
11132;DHT22;5620;53.570;9.718;2022-10-26T15:00:39;21.30;1.00
11132;DHT22;5620;53.570;9.718;2022-10-26T15:03:09;20.80;1.00
11132;DHT22;5620;53.570;9.718;2022-10-26T15:05:39;20.50;1.00
11132;DHT22;5620;53.570;9.718;2022-10-26T15:08:40;20.20;1.00
11132;DHT22;5620;53.570;9.718;2022-10-26T15:11:07;19.90;1.00
11132;DHT22;5620;53.570;9.718;2022-10-26T15:13:32;19.70;1.00
11132;DHT22;5620;53.570;9.718;2022-10-26T15:18:46;19.40;1.00
11132;DHT22;5620;53.570;9.718;2022-10-26T15:21:36;19.20;1.00
11132;DHT22;5620;53.570;9.718;2022-10-26T15:24:03;19.10;1.00
11132;DHT22;5620;53.570;9.718;2022-10-26T15:26:41;19.00;1.00
11132;DHT22;5620;53.570;9.718;2022-10-26T15:32:30;18.70;1.00
11132;DHT22;5620;53.570;9.718;2022-10-26T15:37:50;18.20;1.00
11132;DHT22;5620;53.570;9.718;2022-10-26T15:40:16;18.00;1.00
11132;DHT22;5620;53.570;9.718;2022-10-26T15:42:48;17.80;1.00
11132;DHT22;5620;53.570;9.718;2022-10-26T15:45:25;17.60;1.00
11132;DHT22;5620;53.570;9.718;2022-10-26T15:47:53;17.40;1.00
11132;DHT22;5620;53.570;9.718;2022-10-26T15:50:23;17.30;1.00
11132;DHT22;5620;53.570;9.718;2022-10-26T15:53:00;17.20;1.00
11132;DHT22;5620;53.570;9.718;2022-10-26T15:55:27;17.20;1.00
11132;DHT22;5620;53.570;9.718;2022-10-26T15:57:54;17.20;1.00
11132;DHT22;5620;53.570;9.718;2022-10-26T16:00:21;17.10;1.00
11132;DHT22;5620;53.570;9.718;2022-10-26T16:02:48;17.00;1.00
11132;DHT22;5620;53.570;9.718;2022-10-26T16:05:15;16.90;1.00
11132;DHT22;5620;53.570;9.718;2022-10-26T16:07:42;16.80;1.00
11132;DHT22;5620;53.570;9.718;2022-10-26T16:10:36;16.70;1.00
11132;DHT22;5620;53.570;9.718;2022-10-26T16:13:05;16.60;1.00
11132;DHT22;5620;53.570;9.718;2022-10-26T16:15:31;16.40;1.00
11132;DHT22;5620;53.570;9.718;2022-10-26T16:17:57;16.40;1.00
11132;DHT22;5620;53.570;9.718;2022-10-26T16:20:24;16.30;1.00
11132;DHT22;5620;53.570;9.718;2022-10-26T16:22:52;16.30;14.00
11132;DHT22;5620;53.570;9.718;2022-10-26T16:25:23;16.20;62.00
11132;DHT22;5620;53.570;9.718;2022-10-26T16:27:53;16.10;81.80
11132;DHT22;5620;53.570;9.718;2022-10-26T16:30:20;16.00;99.90
11132;DHT22;5620;53.570;9.718;2022-10-26T16:32:46;15.90;99.90
11132;DHT22;5620;53.570;9.718;2022-10-26T16:35:13;15.80;99.90
11132;DHT22;5620;53.570;9.718;2022-10-26T16:37:42;15.70;99.90
11132;DHT22;5620;53.570;9.718;2022-10-26T16:40:09;15.60;99.90
11132;DHT22;5620;53.570;9.718;2022-10-26T16:42:36;15.50;1.00
11132;DHT22;5620;53.570;9.718;2022-10-26T16:45:02;15.40;1.00
11132;DHT22;5620;53.570;9.718;2022-10-26T16:47:32;15.40;1.00
11132;DHT22;5620;53.570;9.718;2022-10-26T16:50:00;15.30;1.00
11132;DHT22;5620;53.570;9.718;2022-10-26T16:52:27;15.20;1.00
11132;DHT22;5620;53.570;9.718;2022-10-26T16:54:53;15.10;1.00
11132;DHT22;5620;53.570;9.718;2022-10-26T16:57:20;15.10;6.90
11132;DHT22;5620;53.570;9.718;2022-10-26T16:59:47;15.00;59.80
11132;DHT22;5620;53.570;9.718;2022-10-26T17:02:14;14.90;93.40
11132;DHT22;5620;53.570;9.718;2022-10-26T17:04:40;15.00;99.90
11132;DHT22;5620;53.570;9.718;2022-10-26T17:07:07;14.90;99.90
11132;DHT22;5620;53.570;9.718;2022-10-26T17:09:34;14.90;99.90
11132;DHT22;5620;53.570;9.718;2022-10-26T17:12:00;14.90;99.90
11132;DHT22;5620;53.570;9.718;2022-10-26T17:14:27;14.80;99.90
11132;DHT22;5620;53.570;9.718;2022-10-26T17:16:53;14.80;99.90
11132;DHT22;5620;53.570;9.718;2022-10-26T17:19:19;14.70;99.90
11132;DHT22;5620;53.570;9.718;2022-10-26T17:21:46;14.70;99.90
11132;DHT22;5620;53.570;9.718;2022-10-26T17:24:13;14.70;1.00
11132;DHT22;5620;53.570;9.718;2022-10-26T17:26:41;14.70;1.00
11132;DHT22;5620;53.570;9.718;2022-10-26T17:29:11;14.70;1.00
11132;DHT22;5620;53.570;9.718;2022-10-26T17:31:37;14.80;1.00
11132;DHT22;5620;53.570;9.718;2022-10-26T17:34:02;14.90;1.00
11132;DHT22;5620;53.570;9.718;2022-10-26T17:36:29;15.10;1.00
11132;DHT22;5620;53.570;9.718;2022-10-26T17:38:55;15.20;1.00
11132;DHT22;5620;53.570;9.718;2022-10-26T17:41:23;15.40;1.00
11132;DHT22;5620;53.570;9.718;2022-10-26T17:43:49;15.50;1.00
11132;DHT22;5620;53.570;9.718;2022-10-26T17:46:20;15.60;1.00
11132;DHT22;5620;53.570;9.718;2022-10-26T17:48:46;15.70;1.00
11132;DHT22;5620;53.570;9.718;2022-10-26T17:51:17;15.70;1.00
11132;DHT22;5620;53.570;9.718;2022-10-26T17:53:47;15.70;1.00
11132;DHT22;5620;53.570;9.718;2022-10-26T17:56:21;15.70;1.00
11132;DHT22;5620;53.570;9.718;2022-10-26T17:58:55;15.70;1.00
11132;DHT22;5620;53.570;9.718;2022-10-26T18:01:21;15.80;1.00
11132;DHT22;5620;53.570;9.718;2022-10-26T18:03:47;15.70;1.00
11132;DHT22;5620;53.570;9.718;2022-10-26T18:06:13;15.70;1.00
11132;DHT22;5620;53.570;9.718;2022-10-26T18:08:40;15.60;1.00
11132;DHT22;5620;53.570;9.718;2022-10-26T18:11:10;15.50;1.00